sensor_id;sensor_type;location;lat;lon;timestamp;P1;durP1;ratioP1;P2;durP2;ratioP2
43345;SDS011;28937;51.160;4.146;2022-08-02T00:02:17;3.90;;;1.17;;
43345;SDS011;28937;51.160;4.146;2022-08-02T00:04:43;3.58;;;1.30;;
43345;SDS011;28937;51.160;4.146;2022-08-02T00:07:09;3.08;;;1.35;;
43345;SDS011;28937;51.160;4.146;2022-08-02T00:09:35;4.63;;;1.33;;
43345;SDS011;28937;51.160;4.146;2022-08-02T00:12:00;2.70;;;1.25;;
43345;SDS011;28937;51.160;4.146;2022-08-02T00:14:26;2.45;;;1.05;;
43345;SDS011;28937;51.160;4.146;2022-08-02T00:16:52;4.68;;;1.58;;
43345;SDS011;28937;51.160;4.146;2022-08-02T00:19:17;4.78;;;1.58;;
43345;SDS011;28937;51.160;4.146;2022-08-02T00:21:43;5.72;;;1.55;;
43345;SDS011;28937;51.160;4.146;2022-08-02T00:24:08;3.10;;;1.20;;
43345;SDS011;28937;51.160;4.146;2022-08-02T00:26:34;3.53;;;1.48;;
43345;SDS011;28937;51.160;4.146;2022-08-02T00:29:00;5.00;;;2.10;;
43345;SDS011;28937;51.160;4.146;2022-08-02T00:31:25;7.63;;;1.77;;
43345;SDS011;28937;51.160;4.146;2022-08-02T00:33:51;7.20;;;1.45;;
43345;SDS011;28937;51.160;4.146;2022-08-02T00:36:17;5.18;;;1.13;;
43345;SDS011;28937;51.160;4.146;2022-08-02T00:38:42;6.25;;;1.73;;
43345;SDS011;28937;51.160;4.146;2022-08-02T00:41:15;3.22;;;1.58;;
43345;SDS011;28937;51.160;4.146;2022-08-02T00:43:43;3.60;;;1.55;;
43345;SDS011;28937;51.160;4.146;2022-08-02T00:46:10;4.65;;;1.20;;
43345;SDS011;28937;51.160;4.146;2022-08-02T00:48:36;2.05;;;1.00;;
43345;SDS011;28937;51.160;4.146;2022-08-02T00:51:01;4.40;;;1.52;;
43345;SDS011;28937;51.160;4.146;2022-08-02T00:53:28;3.80;;;1.77;;
43345;SDS011;28937;51.160;4.146;2022-08-02T00:55:53;7.25;;;1.85;;
43345;SDS011;28937;51.160;4.146;2022-08-02T00:58:19;4.93;;;1.65;;
43345;SDS011;28937;51.160;4.146;2022-08-02T01:00:45;7.68;;;1.63;;
43345;SDS011;28937;51.160;4.146;2022-08-02T01:03:10;3.60;;;1.50;;
43345;SDS011;28937;51.160;4.146;2022-08-02T01:05:36;3.10;;;1.17;;
43345;SDS011;28937;51.160;4.146;2022-08-02T01:08:02;3.92;;;1.58;;
43345;SDS011;28937;51.160;4.146;2022-08-02T01:10:28;5.07;;;1.63;;
43345;SDS011;28937;51.160;4.146;2022-08-02T01:12:54;4.47;;;1.35;;
43345;SDS011;28937;51.160;4.146;2022-08-02T01:15:19;8.90;;;1.80;;
43345;SDS011;28937;51.160;4.146;2022-08-02T01:17:53;3.25;;;1.27;;
43345;SDS011;28937;51.160;4.146;2022-08-02T01:26:17;3.83;;;1.27;;
43345;SDS011;28937;51.160;4.146;2022-08-02T01:29:03;4.50;;;1.95;;
43345;SDS011;28937;51.160;4.146;2022-08-02T01:31:33;4.13;;;1.63;;
43345;SDS011;28937;51.160;4.146;2022-08-02T01:34:10;4.40;;;1.27;;
43345;SDS011;28937;51.160;4.146;2022-08-02T01:36:40;4.28;;;1.55;;
43345;SDS011;28937;51.160;4.146;2022-08-02T01:39:11;3.30;;;1.38;;
43345;SDS011;28937;51.160;4.146;2022-08-02T01:41:39;5.78;;;2.13;;
43345;SDS011;28937;51.160;4.146;2022-08-02T01:44:06;7.93;;;2.35;;
43345;SDS011;28937;51.160;4.146;2022-08-02T01:46:35;7.35;;;2.38;;
43345;SDS011;28937;51.160;4.146;2022-08-02T01:49:06;5.18;;;2.17;;
43345;SDS011;28937;51.160;4.146;2022-08-02T01:51:34;6.90;;;2.42;;
43345;SDS011;28937;51.160;4.146;2022-08-02T01:54:21;7.53;;;2.10;;
43345;SDS011;28937;51.160;4.146;2022-08-02T01:56:49;7.97;;;1.90;;
43345;SDS011;28937;51.160;4.146;2022-08-02T01:59:16;5.60;;;1.77;;
43345;SDS011;28937;51.160;4.146;2022-08-02T02:01:44;4.47;;;1.90;;
43345;SDS011;28937;51.160;4.146;2022-08-02T02:04:13;8.07;;;2.10;;
43345;SDS011;28937;51.160;4.146;2022-08-02T02:06:40;5.30;;;2.10;;
43345;SDS011;28937;51.160;4.146;2022-08-02T02:09:08;6.40;;;2.25;;
43345;SDS011;28937;51.160;4.146;2022-08-02T02:11:35;7.40;;;2.13;;
43345;SDS011;28937;51.160;4.146;2022-08-02T02:14:01;8.07;;;2.45;;
43345;SDS011;28937;51.160;4.146;2022-08-02T02:16:28;7.50;;;2.45;;
43345;SDS011;28937;51.160;4.146;2022-08-02T02:18:55;7.38;;;1.83;;
43345;SDS011;28937;51.160;4.146;2022-08-02T02:21:23;6.57;;;1.98;;
43345;SDS011;28937;51.160;4.146;2022-08-02T02:23:49;4.40;;;1.83;;
43345;SDS011;28937;51.160;4.146;2022-08-02T02:26:15;7.82;;;2.30;;
43345;SDS011;28937;51.160;4.146;2022-08-02T02:28:42;6.93;;;2.25;;
43345;SDS011;28937;51.160;4.146;2022-08-02T02:31:17;6.15;;;1.88;;
43345;SDS011;28937;51.160;4.146;2022-08-02T02:36:15;8.82;;;2.28;;
43345;SDS011;28937;51.160;4.146;2022-08-02T02:38:42;6.03;;;2.25;;
43345;SDS011;28937;51.160;4.146;2022-08-02T02:41:09;4.50;;;2.45;;
43345;SDS011;28937;51.160;4.146;2022-08-02T02:43:36;9.07;;;2.78;;
43345;SDS011;28937;51.160;4.146;2022-08-02T02:46:03;4.38;;;2.10;;
43345;SDS011;28937;51.160;4.146;2022-08-02T02:48:31;7.80;;;2.42;;
43345;SDS011;28937;51.160;4.146;2022-08-02T02:50:58;4.80;;;2.25;;
43345;SDS011;28937;51.160;4.146;2022-08-02T02:53:27;6.03;;;2.35;;
43345;SDS011;28937;51.160;4.146;2022-08-02T02:55:54;4.60;;;2.30;;
43345;SDS011;28937;51.160;4.146;2022-08-02T02:58:20;4.93;;;2.20;;
43345;SDS011;28937;51.160;4.146;2022-08-02T03:00:47;4.05;;;2.30;;
43345;SDS011;28937;51.160;4.146;2022-08-02T03:03:32;6.03;;;2.13;;
43345;SDS011;28937;51.160;4.146;2022-08-02T03:05:59;4.95;;;2.40;;
43345;SDS011;28937;51.160;4.146;2022-08-02T03:08:25;4.50;;;2.45;;
43345;SDS011;28937;51.160;4.146;2022-08-02T03:10:51;6.55;;;2.42;;
43345;SDS011;28937;51.160;4.146;2022-08-02T03:13:18;6.55;;;3.30;;
43345;SDS011;28937;51.160;4.146;2022-08-02T03:15:44;3.88;;;2.80;;
43345;SDS011;28937;51.160;4.146;2022-08-02T03:18:28;7.22;;;3.10;;
43345;SDS011;28937;51.160;4.146;2022-08-02T03:21:01;6.13;;;2.42;;
43345;SDS011;28937;51.160;4.146;2022-08-02T03:23:29;7.35;;;3.03;;
43345;SDS011;28937;51.160;4.146;2022-08-02T03:25:55;5.63;;;3.08;;
43345;SDS011;28937;51.160;4.146;2022-08-02T03:28:21;6.53;;;3.28;;
43345;SDS011;28937;51.160;4.146;2022-08-02T03:30:47;6.72;;;3.45;;
43345;SDS011;28937;51.160;4.146;2022-08-02T03:33:13;3.70;;;3.00;;
43345;SDS011;28937;51.160;4.146;2022-08-02T03:35:39;6.28;;;2.95;;
43345;SDS011;28937;51.160;4.146;2022-08-02T03:38:06;7.57;;;3.70;;
43345;SDS011;28937;51.160;4.146;2022-08-02T03:40:32;9.57;;;3.75;;
43345;SDS011;28937;51.160;4.146;2022-08-02T03:43:00;7.10;;;3.58;;
43345;SDS011;28937;51.160;4.146;2022-08-02T03:45:26;6.95;;;3.25;;
43345;SDS011;28937;51.160;4.146;2022-08-02T03:47:55;5.22;;;2.80;;
43345;SDS011;28937;51.160;4.146;2022-08-02T03:50:21;7.68;;;3.03;;
43345;SDS011;28937;51.160;4.146;2022-08-02T03:52:47;5.60;;;3.53;;
43345;SDS011;28937;51.160;4.146;2022-08-02T03:55:13;5.95;;;3.97;;
43345;SDS011;28937;51.160;4.146;2022-08-02T03:57:39;7.45;;;4.53;;
43345;SDS011;28937;51.160;4.146;2022-08-02T04:00:07;9.90;;;4.68;;
43345;SDS011;28937;51.160;4.146;2022-08-02T04:02:34;8.65;;;5.70;;
43345;SDS011;28937;51.160;4.146;2022-08-02T04:05:00;8.23;;;5.32;;
43345;SDS011;28937;51.160;4.146;2022-08-02T04:07:26;7.07;;;5.75;;
43345;SDS011;28937;51.160;4.146;2022-08-02T04:09:52;8.55;;;5.90;;
43345;SDS011;28937;51.160;4.146;2022-08-02T04:12:17;8.10;;;6.13;;
43345;SDS011;28937;51.160;4.146;2022-08-02T04:14:43;7.57;;;6.30;;
43345;SDS011;28937;51.160;4.146;2022-08-02T04:17:10;8.52;;;5.70;;
43345;SDS011;28937;51.160;4.146;2022-08-02T04:19:39;6.70;;;4.32;;
43345;SDS011;28937;51.160;4.146;2022-08-02T04:22:15;9.88;;;5.63;;
43345;SDS011;28937;51.160;4.146;2022-08-02T04:27:19;11.50;;;6.95;;
43345;SDS011;28937;51.160;4.146;2022-08-02T04:29:47;10.45;;;7.45;;
43345;SDS011;28937;51.160;4.146;2022-08-02T04:32:14;7.80;;;5.95;;
43345;SDS011;28937;51.160;4.146;2022-08-02T04:34:41;5.32;;;3.33;;
43345;SDS011;28937;51.160;4.146;2022-08-02T04:37:08;7.95;;;5.25;;
43345;SDS011;28937;51.160;4.146;2022-08-02T04:39:35;8.75;;;7.25;;
43345;SDS011;28937;51.160;4.146;2022-08-02T04:42:01;7.85;;;6.22;;
43345;SDS011;28937;51.160;4.146;2022-08-02T04:44:27;12.02;;;7.05;;
43345;SDS011;28937;51.160;4.146;2022-08-02T04:46:53;13.52;;;6.28;;
43345;SDS011;28937;51.160;4.146;2022-08-02T04:49:19;8.82;;;6.60;;
43345;SDS011;28937;51.160;4.146;2022-08-02T04:51:45;9.70;;;5.05;;
43345;SDS011;28937;51.160;4.146;2022-08-02T04:54:11;7.93;;;5.93;;
43345;SDS011;28937;51.160;4.146;2022-08-02T04:56:37;8.57;;;6.53;;
43345;SDS011;28937;51.160;4.146;2022-08-02T04:59:03;19.50;;;6.15;;
43345;SDS011;28937;51.160;4.146;2022-08-02T05:01:29;11.55;;;6.47;;
43345;SDS011;28937;51.160;4.146;2022-08-02T05:03:55;4.82;;;3.78;;
43345;SDS011;28937;51.160;4.146;2022-08-02T05:06:21;8.63;;;5.35;;
43345;SDS011;28937;51.160;4.146;2022-08-02T05:08:46;9.70;;;6.57;;
43345;SDS011;28937;51.160;4.146;2022-08-02T05:11:13;8.52;;;5.75;;
43345;SDS011;28937;51.160;4.146;2022-08-02T05:13:42;7.13;;;6.03;;
43345;SDS011;28937;51.160;4.146;2022-08-02T05:16:08;5.97;;;4.40;;
43345;SDS011;28937;51.160;4.146;2022-08-02T05:18:33;7.15;;;5.80;;
43345;SDS011;28937;51.160;4.146;2022-08-02T05:20:59;6.40;;;4.93;;
43345;SDS011;28937;51.160;4.146;2022-08-02T05:23:25;7.15;;;4.95;;
43345;SDS011;28937;51.160;4.146;2022-08-02T05:25:51;6.63;;;4.47;;
43345;SDS011;28937;51.160;4.146;2022-08-02T05:28:17;5.30;;;4.20;;
43345;SDS011;28937;51.160;4.146;2022-08-02T05:30:43;5.50;;;3.67;;
43345;SDS011;28937;51.160;4.146;2022-08-02T05:33:08;6.25;;;4.50;;
43345;SDS011;28937;51.160;4.146;2022-08-02T05:35:34;6.72;;;5.07;;
43345;SDS011;28937;51.160;4.146;2022-08-02T05:38:00;4.55;;;3.00;;
43345;SDS011;28937;51.160;4.146;2022-08-02T05:40:26;7.28;;;5.38;;
43345;SDS011;28937;51.160;4.146;2022-08-02T05:42:52;9.00;;;6.13;;
43345;SDS011;28937;51.160;4.146;2022-08-02T05:45:18;7.10;;;5.22;;
43345;SDS011;28937;51.160;4.146;2022-08-02T05:47:43;3.92;;;2.88;;
43345;SDS011;28937;51.160;4.146;2022-08-02T05:50:09;4.40;;;2.90;;
43345;SDS011;28937;51.160;4.146;2022-08-02T05:52:40;6.35;;;4.22;;
43345;SDS011;28937;51.160;4.146;2022-08-02T05:55:15;5.63;;;4.80;;
43345;SDS011;28937;51.160;4.146;2022-08-02T06:00:29;8.40;;;6.22;;
43345;SDS011;28937;51.160;4.146;2022-08-02T06:06:28;5.60;;;4.55;;
43345;SDS011;28937;51.160;4.146;2022-08-02T06:08:37;4.10;;;3.70;;
43345;SDS011;28937;51.160;4.146;2022-08-02T06:11:07;3.60;;;3.22;;
43345;SDS011;28937;51.160;4.146;2022-08-02T06:16:08;6.60;;;4.68;;
43345;SDS011;28937;51.160;4.146;2022-08-02T06:18:34;12.90;;;3.83;;
43345;SDS011;28937;51.160;4.146;2022-08-02T06:21:01;6.60;;;3.00;;
43345;SDS011;28937;51.160;4.146;2022-08-02T06:23:29;6.38;;;2.58;;
43345;SDS011;28937;51.160;4.146;2022-08-02T06:25:55;5.30;;;3.17;;
43345;SDS011;28937;51.160;4.146;2022-08-02T06:28:22;6.00;;;3.10;;
43345;SDS011;28937;51.160;4.146;2022-08-02T06:30:49;10.57;;;3.10;;
43345;SDS011;28937;51.160;4.146;2022-08-02T06:33:14;10.13;;;3.78;;
43345;SDS011;28937;51.160;4.146;2022-08-02T06:35:43;4.68;;;3.55;;
43345;SDS011;28937;51.160;4.146;2022-08-02T06:38:21;6.78;;;3.97;;
43345;SDS011;28937;51.160;4.146;2022-08-02T06:40:55;4.78;;;3.35;;
43345;SDS011;28937;51.160;4.146;2022-08-02T06:43:32;6.53;;;3.80;;
43345;SDS011;28937;51.160;4.146;2022-08-02T06:46:06;6.32;;;3.85;;
43345;SDS011;28937;51.160;4.146;2022-08-02T06:48:32;9.05;;;3.90;;
43345;SDS011;28937;51.160;4.146;2022-08-02T06:51:00;5.35;;;3.10;;
43345;SDS011;28937;51.160;4.146;2022-08-02T06:53:29;4.68;;;3.83;;
43345;SDS011;28937;51.160;4.146;2022-08-02T06:55:55;4.50;;;2.95;;
43345;SDS011;28937;51.160;4.146;2022-08-02T06:58:21;6.95;;;3.13;;
43345;SDS011;28937;51.160;4.146;2022-08-02T07:00:47;9.88;;;3.45;;
43345;SDS011;28937;51.160;4.146;2022-08-02T07:03:13;7.93;;;3.08;;
43345;SDS011;28937;51.160;4.146;2022-08-02T07:05:39;4.85;;;2.80;;
43345;SDS011;28937;51.160;4.146;2022-08-02T07:08:05;7.22;;;3.20;;
43345;SDS011;28937;51.160;4.146;2022-08-02T07:10:32;8.60;;;3.40;;
43345;SDS011;28937;51.160;4.146;2022-08-02T07:12:58;8.82;;;2.92;;
43345;SDS011;28937;51.160;4.146;2022-08-02T07:15:24;6.13;;;3.15;;
43345;SDS011;28937;51.160;4.146;2022-08-02T07:17:49;6.80;;;2.90;;
43345;SDS011;28937;51.160;4.146;2022-08-02T07:20:15;6.55;;;2.72;;
43345;SDS011;28937;51.160;4.146;2022-08-02T07:22:40;8.35;;;3.08;;
43345;SDS011;28937;51.160;4.146;2022-08-02T07:25:06;5.25;;;2.88;;
43345;SDS011;28937;51.160;4.146;2022-08-02T07:27:32;5.05;;;3.22;;
43345;SDS011;28937;51.160;4.146;2022-08-02T07:29:59;5.03;;;2.78;;
43345;SDS011;28937;51.160;4.146;2022-08-02T07:32:26;3.47;;;2.83;;
43345;SDS011;28937;51.160;4.146;2022-08-02T07:34:54;5.47;;;3.50;;
43345;SDS011;28937;51.160;4.146;2022-08-02T07:37:21;4.82;;;2.55;;
43345;SDS011;28937;51.160;4.146;2022-08-02T07:39:48;5.38;;;2.70;;
43345;SDS011;28937;51.160;4.146;2022-08-02T07:42:14;4.65;;;2.88;;
43345;SDS011;28937;51.160;4.146;2022-08-02T07:44:39;4.25;;;3.00;;
43345;SDS011;28937;51.160;4.146;2022-08-02T07:47:05;4.68;;;2.30;;
43345;SDS011;28937;51.160;4.146;2022-08-02T07:49:30;4.53;;;2.20;;
43345;SDS011;28937;51.160;4.146;2022-08-02T07:51:56;3.40;;;2.30;;
43345;SDS011;28937;51.160;4.146;2022-08-02T07:54:22;3.15;;;2.28;;
43345;SDS011;28937;51.160;4.146;2022-08-02T07:56:48;5.68;;;2.05;;
43345;SDS011;28937;51.160;4.146;2022-08-02T07:59:14;3.50;;;1.90;;
43345;SDS011;28937;51.160;4.146;2022-08-02T08:01:39;6.43;;;2.10;;
43345;SDS011;28937;51.160;4.146;2022-08-02T08:04:05;3.88;;;2.13;;
43345;SDS011;28937;51.160;4.146;2022-08-02T08:06:31;3.15;;;2.00;;
43345;SDS011;28937;51.160;4.146;2022-08-02T08:08:57;4.75;;;2.03;;
43345;SDS011;28937;51.160;4.146;2022-08-02T08:11:23;5.25;;;1.75;;
43345;SDS011;28937;51.160;4.146;2022-08-02T08:13:49;5.50;;;1.90;;
43345;SDS011;28937;51.160;4.146;2022-08-02T08:16:15;2.78;;;1.42;;
43345;SDS011;28937;51.160;4.146;2022-08-02T08:18:40;5.60;;;1.67;;
43345;SDS011;28937;51.160;4.146;2022-08-02T08:21:06;2.40;;;1.33;;
43345;SDS011;28937;51.160;4.146;2022-08-02T08:23:32;4.25;;;1.45;;
43345;SDS011;28937;51.160;4.146;2022-08-02T08:25:58;2.80;;;1.65;;
43345;SDS011;28937;51.160;4.146;2022-08-02T08:28:24;4.18;;;1.58;;
43345;SDS011;28937;51.160;4.146;2022-08-02T08:30:50;4.97;;;1.50;;
43345;SDS011;28937;51.160;4.146;2022-08-02T08:33:15;3.90;;;1.30;;
43345;SDS011;28937;51.160;4.146;2022-08-02T08:35:41;3.92;;;1.30;;
43345;SDS011;28937;51.160;4.146;2022-08-02T08:38:06;3.85;;;1.65;;
43345;SDS011;28937;51.160;4.146;2022-08-02T08:40:32;5.00;;;1.17;;
43345;SDS011;28937;51.160;4.146;2022-08-02T08:42:58;3.53;;;1.13;;
43345;SDS011;28937;51.160;4.146;2022-08-02T08:45:24;3.45;;;1.38;;
43345;SDS011;28937;51.160;4.146;2022-08-02T08:47:59;1.80;;;0.90;;
43345;SDS011;28937;51.160;4.146;2022-08-02T08:50:32;3.45;;;0.82;;
43345;SDS011;28937;51.160;4.146;2022-08-02T08:53:04;3.55;;;0.93;;
43345;SDS011;28937;51.160;4.146;2022-08-02T08:55:32;1.70;;;0.90;;
43345;SDS011;28937;51.160;4.146;2022-08-02T08:58:00;3.28;;;0.93;;
43345;SDS011;28937;51.160;4.146;2022-08-02T09:00:28;4.15;;;1.10;;
43345;SDS011;28937;51.160;4.146;2022-08-02T09:02:55;3.50;;;0.98;;
43345;SDS011;28937;51.160;4.146;2022-08-02T09:05:21;1.95;;;0.93;;
43345;SDS011;28937;51.160;4.146;2022-08-02T09:07:47;3.53;;;0.77;;
43345;SDS011;28937;51.160;4.146;2022-08-02T09:15:32;3.58;;;0.47;;
43345;SDS011;28937;51.160;4.146;2022-08-02T09:17:57;4.90;;;0.88;;
43345;SDS011;28937;51.160;4.146;2022-08-02T09:20:23;7.28;;;1.10;;
43345;SDS011;28937;51.160;4.146;2022-08-02T09:23:05;4.35;;;0.60;;
43345;SDS011;28937;51.160;4.146;2022-08-02T09:25:35;2.35;;;0.77;;
43345;SDS011;28937;51.160;4.146;2022-08-02T09:28:02;4.28;;;0.70;;
43345;SDS011;28937;51.160;4.146;2022-08-02T09:30:29;4.70;;;0.93;;
43345;SDS011;28937;51.160;4.146;2022-08-02T09:32:55;2.05;;;0.90;;
43345;SDS011;28937;51.160;4.146;2022-08-02T09:35:30;3.17;;;0.63;;
43345;SDS011;28937;51.160;4.146;2022-08-02T09:38:12;1.63;;;0.60;;
43345;SDS011;28937;51.160;4.146;2022-08-02T09:40:39;5.03;;;0.80;;
43345;SDS011;28937;51.160;4.146;2022-08-02T09:43:06;3.22;;;0.65;;
43345;SDS011;28937;51.160;4.146;2022-08-02T09:45:33;2.20;;;0.57;;
43345;SDS011;28937;51.160;4.146;2022-08-02T09:48:01;3.22;;;0.70;;
43345;SDS011;28937;51.160;4.146;2022-08-02T09:50:36;1.15;;;0.63;;
43345;SDS011;28937;51.160;4.146;2022-08-02T09:53:02;1.80;;;0.60;;
43345;SDS011;28937;51.160;4.146;2022-08-02T09:55:28;3.08;;;0.80;;
43345;SDS011;28937;51.160;4.146;2022-08-02T09:57:54;4.15;;;0.77;;
43345;SDS011;28937;51.160;4.146;2022-08-02T10:00:20;3.10;;;0.85;;
43345;SDS011;28937;51.160;4.146;2022-08-02T10:03:05;2.80;;;0.40;;
43345;SDS011;28937;51.160;4.146;2022-08-02T10:05:43;2.17;;;0.50;;
43345;SDS011;28937;51.160;4.146;2022-08-02T10:08:13;3.28;;;0.70;;
43345;SDS011;28937;51.160;4.146;2022-08-02T10:10:40;3.47;;;0.65;;
43345;SDS011;28937;51.160;4.146;2022-08-02T10:13:07;1.42;;;0.60;;
43345;SDS011;28937;51.160;4.146;2022-08-02T10:15:34;2.78;;;0.47;;
43345;SDS011;28937;51.160;4.146;2022-08-02T10:18:07;1.45;;;0.70;;
43345;SDS011;28937;51.160;4.146;2022-08-02T10:20:39;2.65;;;1.00;;
43345;SDS011;28937;51.160;4.146;2022-08-02T10:23:08;4.03;;;0.60;;
43345;SDS011;28937;51.160;4.146;2022-08-02T10:25:37;2.92;;;0.88;;
43345;SDS011;28937;51.160;4.146;2022-08-02T10:28:05;2.67;;;0.82;;
43345;SDS011;28937;51.160;4.146;2022-08-02T10:30:33;2.22;;;1.00;;
43345;SDS011;28937;51.160;4.146;2022-08-02T10:33:01;2.75;;;0.82;;
43345;SDS011;28937;51.160;4.146;2022-08-02T10:35:31;5.78;;;0.90;;
43345;SDS011;28937;51.160;4.146;2022-08-02T10:38:00;2.70;;;0.65;;
43345;SDS011;28937;51.160;4.146;2022-08-02T10:43:12;2.58;;;0.90;;
43345;SDS011;28937;51.160;4.146;2022-08-02T10:54:19;2.65;;;0.73;;
43345;SDS011;28937;51.160;4.146;2022-08-02T10:56:47;2.38;;;0.60;;
43345;SDS011;28937;51.160;4.146;2022-08-02T10:59:26;5.05;;;0.90;;
43345;SDS011;28937;51.160;4.146;2022-08-02T11:01:53;3.92;;;0.68;;
43345;SDS011;28937;51.160;4.146;2022-08-02T11:09:34;1.88;;;0.90;;
43345;SDS011;28937;51.160;4.146;2022-08-02T11:12:04;2.13;;;0.90;;
43345;SDS011;28937;51.160;4.146;2022-08-02T11:14:35;2.40;;;0.70;;
43345;SDS011;28937;51.160;4.146;2022-08-02T11:19:30;2.38;;;0.82;;
43345;SDS011;28937;51.160;4.146;2022-08-02T11:22:06;3.42;;;0.90;;
43345;SDS011;28937;51.160;4.146;2022-08-02T11:24:38;3.15;;;0.98;;
43345;SDS011;28937;51.160;4.146;2022-08-02T11:27:05;2.72;;;0.82;;
43345;SDS011;28937;51.160;4.146;2022-08-02T11:29:39;4.95;;;0.80;;
43345;SDS011;28937;51.160;4.146;2022-08-02T11:32:07;2.40;;;0.65;;
43345;SDS011;28937;51.160;4.146;2022-08-02T11:34:38;4.22;;;0.60;;
43345;SDS011;28937;51.160;4.146;2022-08-02T11:37:06;2.17;;;0.60;;
43345;SDS011;28937;51.160;4.146;2022-08-02T11:39:32;1.73;;;0.80;;
43345;SDS011;28937;51.160;4.146;2022-08-02T11:41:58;6.45;;;1.10;;
43345;SDS011;28937;51.160;4.146;2022-08-02T11:44:25;3.03;;;0.90;;
43345;SDS011;28937;51.160;4.146;2022-08-02T11:46:53;5.90;;;0.68;;
43345;SDS011;28937;51.160;4.146;2022-08-02T11:49:25;2.50;;;0.70;;
43345;SDS011;28937;51.160;4.146;2022-08-02T11:51:52;4.20;;;0.85;;
43345;SDS011;28937;51.160;4.146;2022-08-02T11:54:28;3.08;;;0.80;;
43345;SDS011;28937;51.160;4.146;2022-08-02T11:59:41;4.93;;;0.88;;
43345;SDS011;28937;51.160;4.146;2022-08-02T12:02:09;4.30;;;1.00;;
43345;SDS011;28937;51.160;4.146;2022-08-02T12:04:35;1.50;;;0.50;;
43345;SDS011;28937;51.160;4.146;2022-08-02T12:07:02;4.35;;;0.82;;
43345;SDS011;28937;51.160;4.146;2022-08-02T12:09:30;3.50;;;0.73;;
43345;SDS011;28937;51.160;4.146;2022-08-02T12:11:58;2.65;;;0.75;;
43345;SDS011;28937;51.160;4.146;2022-08-02T12:14:26;2.78;;;0.50;;
43345;SDS011;28937;51.160;4.146;2022-08-02T12:16:53;3.22;;;0.82;;
43345;SDS011;28937;51.160;4.146;2022-08-02T12:19:37;1.15;;;0.60;;
43345;SDS011;28937;51.160;4.146;2022-08-02T12:24:32;2.63;;;0.60;;
43345;SDS011;28937;51.160;4.146;2022-08-02T12:26:59;1.80;;;0.60;;
43345;SDS011;28937;51.160;4.146;2022-08-02T12:29:28;2.95;;;0.68;;
43345;SDS011;28937;51.160;4.146;2022-08-02T12:31:54;2.22;;;0.60;;
43345;SDS011;28937;51.160;4.146;2022-08-02T12:34:20;3.08;;;0.80;;
43345;SDS011;28937;51.160;4.146;2022-08-02T12:42:03;3.28;;;0.90;;
43345;SDS011;28937;51.160;4.146;2022-08-02T12:44:29;1.90;;;0.68;;
43345;SDS011;28937;51.160;4.146;2022-08-02T12:46:59;2.10;;;0.73;;
43345;SDS011;28937;51.160;4.146;2022-08-02T12:49:33;3.13;;;0.85;;
43345;SDS011;28937;51.160;4.146;2022-08-02T12:52:00;1.80;;;0.80;;
43345;SDS011;28937;51.160;4.146;2022-08-02T12:54:30;4.05;;;0.77;;
43345;SDS011;28937;51.160;4.146;2022-08-02T12:57:10;5.13;;;0.82;;
43345;SDS011;28937;51.160;4.146;2022-08-02T12:59:37;2.63;;;0.73;;
43345;SDS011;28937;51.160;4.146;2022-08-02T13:02:05;2.50;;;0.57;;
43345;SDS011;28937;51.160;4.146;2022-08-02T13:04:32;3.47;;;0.82;;
43345;SDS011;28937;51.160;4.146;2022-08-02T13:06:58;6.95;;;0.88;;
43345;SDS011;28937;51.160;4.146;2022-08-02T13:09:24;3.60;;;0.50;;
43345;SDS011;28937;51.160;4.146;2022-08-02T13:11:50;4.07;;;1.10;;
43345;SDS011;28937;51.160;4.146;2022-08-02T13:14:16;3.03;;;0.80;;
43345;SDS011;28937;51.160;4.146;2022-08-02T13:16:43;5.57;;;0.65;;
43345;SDS011;28937;51.160;4.146;2022-08-02T13:19:10;2.72;;;0.73;;
43345;SDS011;28937;51.160;4.146;2022-08-02T13:21:37;5.57;;;0.77;;
43345;SDS011;28937;51.160;4.146;2022-08-02T13:24:02;6.35;;;0.77;;
43345;SDS011;28937;51.160;4.146;2022-08-02T13:26:28;3.80;;;1.15;;
43345;SDS011;28937;51.160;4.146;2022-08-02T13:28:54;5.57;;;0.70;;
43345;SDS011;28937;51.160;4.146;2022-08-02T13:31:19;5.10;;;1.20;;
43345;SDS011;28937;51.160;4.146;2022-08-02T13:33:45;7.63;;;0.93;;
43345;SDS011;28937;51.160;4.146;2022-08-02T13:36:10;2.03;;;0.93;;
43345;SDS011;28937;51.160;4.146;2022-08-02T13:38:36;4.95;;;0.88;;
43345;SDS011;28937;51.160;4.146;2022-08-02T13:41:02;6.32;;;1.17;;
43345;SDS011;28937;51.160;4.146;2022-08-02T13:43:33;4.45;;;0.90;;
43345;SDS011;28937;51.160;4.146;2022-08-02T13:46:00;5.85;;;1.10;;
43345;SDS011;28937;51.160;4.146;2022-08-02T13:48:26;3.42;;;0.90;;
43345;SDS011;28937;51.160;4.146;2022-08-02T13:50:52;5.93;;;1.10;;
43345;SDS011;28937;51.160;4.146;2022-08-02T13:53:18;1.88;;;0.70;;
43345;SDS011;28937;51.160;4.146;2022-08-02T13:55:44;7.60;;;0.82;;
43345;SDS011;28937;51.160;4.146;2022-08-02T13:58:09;4.95;;;0.90;;
43345;SDS011;28937;51.160;4.146;2022-08-02T14:00:35;4.80;;;0.90;;
43345;SDS011;28937;51.160;4.146;2022-08-02T14:03:00;7.00;;;1.17;;
43345;SDS011;28937;51.160;4.146;2022-08-02T14:05:26;2.05;;;0.63;;
43345;SDS011;28937;51.160;4.146;2022-08-02T14:07:55;3.83;;;0.80;;
43345;SDS011;28937;51.160;4.146;2022-08-02T14:10:21;2.28;;;0.73;;
43345;SDS011;28937;51.160;4.146;2022-08-02T14:12:47;6.38;;;0.90;;
43345;SDS011;28937;51.160;4.146;2022-08-02T14:15:12;3.47;;;0.95;;
43345;SDS011;28937;51.160;4.146;2022-08-02T14:17:38;2.55;;;0.77;;
43345;SDS011;28937;51.160;4.146;2022-08-02T14:20:04;2.97;;;0.93;;
43345;SDS011;28937;51.160;4.146;2022-08-02T14:22:30;5.22;;;1.10;;
43345;SDS011;28937;51.160;4.146;2022-08-02T14:24:56;4.10;;;1.13;;
43345;SDS011;28937;51.160;4.146;2022-08-02T14:27:21;4.40;;;0.80;;
43345;SDS011;28937;51.160;4.146;2022-08-02T14:29:48;4.97;;;0.90;;
43345;SDS011;28937;51.160;4.146;2022-08-02T14:32:15;2.20;;;0.90;;
43345;SDS011;28937;51.160;4.146;2022-08-02T14:34:41;7.82;;;1.17;;
43345;SDS011;28937;51.160;4.146;2022-08-02T14:37:08;4.20;;;0.80;;
43345;SDS011;28937;51.160;4.146;2022-08-02T14:39:34;2.33;;;0.77;;
43345;SDS011;28937;51.160;4.146;2022-08-02T14:42:00;2.55;;;0.73;;
43345;SDS011;28937;51.160;4.146;2022-08-02T14:44:26;3.92;;;1.00;;
43345;SDS011;28937;51.160;4.146;2022-08-02T14:46:52;5.63;;;1.40;;
43345;SDS011;28937;51.160;4.146;2022-08-02T14:49:18;8.40;;;0.70;;
43345;SDS011;28937;51.160;4.146;2022-08-02T14:51:44;4.35;;;1.10;;
43345;SDS011;28937;51.160;4.146;2022-08-02T14:54:09;4.75;;;1.13;;
43345;SDS011;28937;51.160;4.146;2022-08-02T14:56:36;5.10;;;0.90;;
43345;SDS011;28937;51.160;4.146;2022-08-02T14:59:02;3.60;;;0.60;;
43345;SDS011;28937;51.160;4.146;2022-08-02T15:01:28;3.67;;;1.05;;
43345;SDS011;28937;51.160;4.146;2022-08-02T15:03:54;2.78;;;1.17;;
43345;SDS011;28937;51.160;4.146;2022-08-02T15:06:19;4.70;;;0.73;;
43345;SDS011;28937;51.160;4.146;2022-08-02T15:08:45;3.65;;;0.90;;
43345;SDS011;28937;51.160;4.146;2022-08-02T15:11:11;4.93;;;0.68;;
43345;SDS011;28937;51.160;4.146;2022-08-02T15:13:36;4.03;;;1.00;;
43345;SDS011;28937;51.160;4.146;2022-08-02T15:16:02;3.38;;;0.90;;
43345;SDS011;28937;51.160;4.146;2022-08-02T15:18:27;5.97;;;1.00;;
43345;SDS011;28937;51.160;4.146;2022-08-02T15:20:53;3.35;;;0.70;;
43345;SDS011;28937;51.160;4.146;2022-08-02T15:23:19;5.80;;;0.93;;
43345;SDS011;28937;51.160;4.146;2022-08-02T15:25:44;4.65;;;0.85;;
43345;SDS011;28937;51.160;4.146;2022-08-02T15:28:10;5.38;;;1.13;;
43345;SDS011;28937;51.160;4.146;2022-08-02T15:30:36;5.43;;;1.13;;
43345;SDS011;28937;51.160;4.146;2022-08-02T15:33:03;6.57;;;1.00;;
43345;SDS011;28937;51.160;4.146;2022-08-02T15:35:29;3.65;;;0.70;;
43345;SDS011;28937;51.160;4.146;2022-08-02T15:37:55;4.40;;;1.30;;
43345;SDS011;28937;51.160;4.146;2022-08-02T15:40:21;4.32;;;1.10;;
43345;SDS011;28937;51.160;4.146;2022-08-02T15:42:48;8.93;;;1.10;;
43345;SDS011;28937;51.160;4.146;2022-08-02T15:45:13;6.30;;;0.88;;